Time;durP1;ratioP1;P1;durP2;ratioP2;P2;SDS_P1;SDS_P2;PMS_P1;PMS_P2;Temp;Humidity;BMP_temperature;BMP_pressure;BME280_temperature;BME280_humidity;BME280_pressure;Samples;Min_cycle;Max_cycle;Signal;HPM_P1;HPM_P2
2021/07/19 00:00:06;;;;;;;;;;;26.30;98.20;;;;;;1829624;77;20226;-90
2021/07/19 00:02:39;;;;;;;;;;;26.30;98.10;;;;;;1833912;77;20447;-90
2021/07/19 00:05:11;;;;;;;;;;;26.30;98.00;;;;;;1836926;77;20173;-91
2021/07/19 00:07:43;;;;;;;;;;;26.30;98.10;;;;;;1838217;76;20184;-91
2021/07/19 00:10:17;;;;;;;;;;;26.40;98.10;;;;;;1816052;77;20238;-90
2021/07/19 00:12:52;;;;;;;;;;;26.40;98.10;;;;;;1851032;77;20176;-91
2021/07/19 00:15:25;;;;;;;;;;;26.40;98.20;;;;;;1834133;77;20500;-91
2021/07/19 00:17:55;;;;;;;;;;;26.40;98.30;;;;;;1907552;75;20278;-93
2021/07/19 00:20:27;;;;;;;;;;;26.40;98.20;;;;;;1832665;76;20195;-89
2021/07/19 00:22:56;;;;;;;;;;;26.40;97.90;;;;;;1832237;77;20168;-88
2021/07/19 00:25:31;;;;;;;;;;;26.50;98.00;;;;;;1832336;77;20206;-91
2021/07/19 00:28:11;;;;;;;;;;;26.50;98.00;;;;;;1834488;77;20436;-91
2021/07/19 00:30:37;;;;;;;;;;;26.50;97.90;;;;;;1830484;77;20174;-91
2021/07/19 00:33:07;;;;;;;;;;;26.50;98.00;;;;;;1830221;77;20149;-91
2021/07/19 00:35:38;;;;;;;;;;;26.50;98.00;;;;;;1835350;77;20177;-86
2021/07/19 00:38:17;;;;;;;;;;;26.50;97.70;;;;;;1818983;78;20154;-88
2021/07/19 00:40:56;;;;;;;;;;;26.60;97.90;;;;;;1853871;77;20217;-89
2021/07/19 00:43:31;;;;;;;;;;;26.60;97.80;;;;;;1847323;76;20241;-90
2021/07/19 00:46:05;;;;;;;;;;;26.60;97.80;;;;;;1821780;78;20300;-92
2021/07/19 00:48:43;;;;;;;;;;;26.70;97.60;;;;;;1815603;77;20490;-86
2021/07/19 00:51:16;;;;;;;;;;;26.70;97.50;;;;;;1829456;78;20246;-86
2021/07/19 00:53:47;;;;;;;;;;;26.70;97.50;;;;;;1828336;78;20230;-90
2021/07/19 00:56:18;;;;;;;;;;;26.80;97.30;;;;;;1834737;78;20254;-93
2021/07/19 00:58:49;;;;;;;;;;;26.80;97.30;;;;;;1828553;78;20264;-88
2021/07/19 01:01:28;;;;;;;;;;;26.80;97.10;;;;;;1826099;78;20458;-90
2021/07/19 01:03:59;;;;;;;;;;;26.80;97.30;;;;;;1827629;76;20240;-89
2021/07/19 01:06:30;;;;;;;;;;;26.90;97.10;;;;;;1824169;78;20217;-91
2021/07/19 01:09:03;;;;;;;;;;;26.90;96.80;;;;;;1826480;78;20179;-90
2021/07/19 01:11:32;;;;;;;;;;;26.90;97.00;;;;;;1828105;78;20180;-91
2021/07/19 01:14:05;;;;;;;;;;;26.90;97.00;;;;;;1831675;78;20223;-90
2021/07/19 01:16:39;;;;;;;;;;;27.00;97.10;;;;;;1828824;78;20504;-87
2021/07/19 01:19:10;;;;;;;;;;;27.10;97.10;;;;;;1832869;78;20401;-89
2021/07/19 01:21:46;;;;;;;;;;;27.10;96.90;;;;;;1836006;78;20122;-89
2021/07/19 01:24:24;;;;;;;;;;;27.10;96.80;;;;;;1827489;77;20280;-90
2021/07/19 01:26:56;;;;;;;;;;;27.10;96.80;;;;;;1826724;78;20142;-90
2021/07/19 01:29:33;;;;;;;;;;;27.20;96.40;;;;;;1824762;78;20194;-89
2021/07/19 01:32:10;;;;;;;;;;;27.20;96.40;;;;;;1829489;77;20209;-86
2021/07/19 01:34:55;;;;;;;;;;;27.20;96.50;;;;;;1809840;78;20529;-87
2021/07/19 01:37:41;;;;;;;;;;;27.20;96.30;;;;;;1840055;77;20188;-90
2021/07/19 01:40:21;;;;;;;;;;;27.20;96.30;;;;;;1837391;77;20182;-88
2021/07/19 01:42:52;;;;;;;;;;;27.20;96.30;;;;;;1849148;77;20231;-91
2021/07/19 01:45:25;;;;;;;;;;;27.20;96.20;;;;;;1833565;77;20218;-93
2021/07/19 01:47:57;;;;;;;;;;;27.20;96.20;;;;;;1835607;77;20199;-90
2021/07/19 01:50:29;;;;;;;;;;;27.20;96.30;;;;;;1856938;76;20154;-90
2021/07/19 01:52:59;;;;;;;;;;;27.30;96.20;;;;;;1842386;77;20136;-93
2021/07/19 01:55:31;;;;;;;;;;;27.30;96.00;;;;;;1844158;77;20175;-94
2021/07/19 01:58:04;;;;;;;;;;;27.30;96.30;;;;;;1840058;77;20276;-95
2021/07/19 02:00:34;;;;;;;;;;;27.30;96.00;;;;;;1837387;76;20241;-94
2021/07/19 02:03:09;;;;;;;;;;;27.40;96.10;;;;;;1838458;77;20282;-89
2021/07/19 02:06:09;;;;;;;;;;;27.40;96.00;;;;;;1844842;76;20243;-95
2021/07/19 02:08:33;;;;;;;;;;;27.40;95.60;;;;;;1837343;77;20208;-94
2021/07/19 02:11:27;;;;;;;;;;;27.40;95.90;;;;;;1854047;76;20184;-89
2021/07/19 02:14:02;;;;;;;;;;;27.50;95.90;;;;;;1824625;77;20218;-96
2021/07/19 02:16:45;;;;;;;;;;;27.50;96.10;;;;;;1830022;77;20176;-91
2021/07/19 02:19:29;;;;;;;;;;;27.60;95.70;;;;;;1840085;77;20278;-91
2021/07/19 02:22:06;;;;;;;;;;;27.60;95.70;;;;;;1904915;75;20160;-94
2021/07/19 02:24:43;;;;;;;;;;;27.60;95.70;;;;;;1909652;75;20195;-93
2021/07/19 02:27:11;;;;;;;;;;;27.60;95.50;;;;;;1835433;77;20208;-90
2021/07/19 02:30:04;;;;;;;;;;;27.70;95.40;;;;;;1790026;78;20177;-92
2021/07/19 02:32:42;;;;;;;;;;;27.70;95.40;;;;;;1843046;77;20243;-91
2021/07/19 02:35:13;;;;;;;;;;;27.70;95.40;;;;;;1838588;77;20137;-94
2021/07/19 02:37:46;;;;;;;;;;;27.80;95.90;;;;;;1843163;77;20172;-89
2021/07/19 02:40:21;;;;;;;;;;;27.90;95.30;;;;;;1819898;76;20200;-91
2021/07/19 02:43:13;;;;;;;;;;;27.90;94.70;;;;;;1829739;76;20232;-95
2021/07/19 02:45:46;;;;;;;;;;;27.90;94.90;;;;;;1842094;77;20170;-93
2021/07/19 02:48:29;;;;;;;;;;;27.90;94.90;;;;;;1837798;77;20216;-91
2021/07/19 02:51:01;;;;;;;;;;;28.00;95.10;;;;;;1829358;78;20229;-92
2021/07/19 02:53:40;;;;;;;;;;;28.00;95.20;;;;;;1835161;77;20132;-92
2021/07/19 02:56:12;;;;;;;;;;;28.10;94.80;;;;;;1850451;77;20393;-94
2021/07/19 02:58:47;;;;;;;;;;;28.30;94.30;;;;;;1829922;77;20231;-88
2021/07/19 03:01:16;;;;;;;;;;;28.30;94.00;;;;;;1836784;77;20256;-91
2021/07/19 03:03:58;;;;;;;;;;;28.40;94.10;;;;;;1828348;77;20131;-91
2021/07/19 03:06:29;;;;;;;;;;;28.40;93.80;;;;;;1837001;77;20236;-94
2021/07/19 03:09:03;;;;;;;;;;;28.40;94.10;;;;;;1831409;77;20198;-91
2021/07/19 03:12:00;;;;;;;;;;;28.40;94.40;;;;;;1837773;77;20223;-86
2021/07/19 03:14:09;;;;;;;;;;;28.50;94.30;;;;;;1826852;77;20177;-90
2021/07/19 03:16:41;;;;;;;;;;;28.50;93.90;;;;;;1848795;75;20180;-92
2021/07/19 03:19:15;;;;;;;;;;;28.60;93.60;;;;;;1830843;78;20165;-93
2021/07/19 03:21:47;;;;;;;;;;;28.60;93.70;;;;;;1846391;77;20237;-90
2021/07/19 03:24:22;;;;;;;;;;;28.70;93.70;;;;;;1836850;76;20187;-90
2021/07/19 03:26:58;;;;;;;;;;;28.70;93.10;;;;;;1830472;77;20128;-93
2021/07/19 03:29:38;;;;;;;;;;;28.80;93.00;;;;;;1839806;77;20238;-93
2021/07/19 03:32:14;;;;;;;;;;;28.80;93.00;;;;;;1836932;77;20330;-94
2021/07/19 03:34:41;;;;;;;;;;;28.80;93.00;;;;;;1835490;77;20451;-92
2021/07/19 03:37:13;;;;;;;;;;;28.90;93.10;;;;;;1831055;77;20207;-92
2021/07/19 03:39:42;;;;;;;;;;;29.00;93.00;;;;;;1854826;77;20158;-93
2021/07/19 03:42:17;;;;;;;;;;;29.00;93.10;;;;;;1831828;78;20196;-90
2021/07/19 03:44:55;;;;;;;;;;;29.10;92.40;;;;;;1840077;77;20145;-91
2021/07/19 03:47:22;;;;;;;;;;;29.10;92.60;;;;;;1827434;77;20171;-89
2021/07/19 03:50:02;;;;;;;;;;;29.30;92.40;;;;;;1832036;77;20172;-77
2021/07/19 03:52:31;;;;;;;;;;;29.40;92.20;;;;;;1847226;77;20212;-76
2021/07/19 03:55:02;;;;;;;;;;;29.50;91.90;;;;;;1909987;74;20176;-76
2021/07/19 03:57:31;;;;;;;;;;;29.60;91.90;;;;;;1897990;75;20203;-76
2021/07/19 04:00:01;;;;;;;;;;;29.70;92.00;;;;;;1899023;74;20221;-75
2021/07/19 04:02:32;;;;;;;;;;;29.80;91.40;;;;;;1906728;75;20171;-77
2021/07/19 04:05:05;;;;;;;;;;;29.80;91.10;;;;;;1900242;75;20537;-77
2021/07/19 04:07:36;;;;;;;;;;;29.80;91.30;;;;;;1893303;75;20161;-75
2021/07/19 04:10:07;;;;;;;;;;;29.80;91.10;;;;;;1890216;75;20205;-77
2021/07/19 04:12:38;;;;;;;;;;;29.70;91.40;;;;;;1895260;75;20155;-78
2021/07/19 04:15:08;;;;;;;;;;;29.70;91.60;;;;;;1850795;77;20179;-77
2021/07/19 04:17:38;;;;;;;;;;;29.70;91.60;;;;;;1830937;77;20218;-75
2021/07/19 04:20:09;;;;;;;;;;;29.70;91.60;;;;;;1825008;77;20555;-77
2021/07/19 04:22:39;;;;;;;;;;;29.80;91.00;;;;;;1828599;77;20435;-79
2021/07/19 04:25:13;;;;;;;;;;;29.80;91.00;;;;;;1837529;77;20208;-77
2021/07/19 04:27:43;;;;;;;;;;;29.80;90.90;;;;;;1890767;75;20254;-76
2021/07/19 04:30:16;;;;;;;;;;;29.90;90.70;;;;;;1899427;75;20142;-77
2021/07/19 04:32:47;;;;;;;;;;;30.00;90.30;;;;;;1900906;75;20533;-78
2021/07/19 04:35:20;;;;;;;;;;;30.00;90.50;;;;;;1907221;74;20275;-78
2021/07/19 04:37:52;;;;;;;;;;;30.00;90.60;;;;;;1894786;75;20825;-78
2021/07/19 04:40:22;;;;;;;;;;;30.10;90.50;;;;;;1895396;75;20204;-78
2021/07/19 04:42:56;;;;;;;;;;;30.20;90.40;;;;;;1885568;74;20128;-78
2021/07/19 04:45:26;;;;;;;;;;;30.20;90.10;;;;;;1896993;74;20113;-78
2021/07/19 04:47:56;;;;;;;;;;;30.20;90.10;;;;;;1897172;75;20412;-76
2021/07/19 04:50:33;;;;;;;;;;;30.20;89.90;;;;;;1885021;75;20840;-76
2021/07/19 04:52:57;;;;;;;;;;;30.30;90.20;;;;;;1876971;75;20170;-77
2021/07/19 04:55:30;;;;;;;;;;;30.40;90.30;;;;;;1884204;75;20418;-78
2021/07/19 04:58:07;;;;;;;;;;;30.50;89.50;;;;;;1902355;74;20188;-77
2021/07/19 05:00:39;;;;;;;;;;;30.50;89.70;;;;;;1894776;75;20158;-77
2021/07/19 05:03:09;;;;;;;;;;;30.50;90.00;;;;;;1893112;74;20214;-77
2021/07/19 05:05:40;;;;;;;;;;;30.40;89.60;;;;;;1892140;75;20221;-77
2021/07/19 05:08:10;;;;;;;;;;;30.40;89.90;;;;;;1883786;75;20217;-76
2021/07/19 05:10:41;;;;;;;;;;;30.30;90.20;;;;;;1886325;75;20497;-78
2021/07/19 05:13:12;;;;;;;;;;;30.20;90.10;;;;;;1883566;75;20257;-78
2021/07/19 05:15:42;;;;;;;;;;;30.10;90.20;;;;;;1858265;75;20179;-78
2021/07/19 05:18:12;;;;;;;;;;;30.10;90.60;;;;;;1899721;75;20168;-79
2021/07/19 05:20:56;;;;;;;;;;;30.20;90.40;;;;;;1891799;75;20179;-79
2021/07/19 05:23:16;;;;;;;;;;;30.20;90.20;;;;;;1889764;75;20141;-77
2021/07/19 05:25:49;;;;;;;;;;;30.20;90.80;;;;;;1877665;75;20190;-78
2021/07/19 05:28:19;;;;;;;;;;;30.20;90.70;;;;;;1886647;75;20459;-78
2021/07/19 05:30:54;;;;;;;;;;;30.30;90.40;;;;;;1876247;75;20210;-77
2021/07/19 05:33:25;;;;;;;;;;;30.40;90.40;;;;;;1888312;75;20239;-76
2021/07/19 05:35:55;;;;;;;;;;;30.40;90.00;;;;;;1890476;75;20406;-78
2021/07/19 05:38:25;;;;;;;;;;;30.50;90.00;;;;;;1889614;75;20232;-77
2021/07/19 05:40:58;;;;;;;;;;;30.50;90.20;;;;;;1883690;75;20179;-78
2021/07/19 05:43:28;;;;;;;;;;;30.50;90.20;;;;;;1896714;75;20234;-78
2021/07/19 05:45:57;;;;;;;;;;;30.50;89.70;;;;;;1909175;75;20164;-78
2021/07/19 05:48:29;;;;;;;;;;;30.40;90.30;;;;;;1910622;73;20648;-78
2021/07/19 05:50:59;;;;;;;;;;;30.40;90.00;;;;;;1905896;73;20494;-76
2021/07/19 05:53:31;;;;;;;;;;;30.30;90.40;;;;;;1904171;75;20237;-77
2021/07/19 05:56:04;;;;;;;;;;;30.20;90.50;;;;;;1895651;75;20204;-78
2021/07/19 05:58:34;;;;;;;;;;;30.30;90.30;;;;;;1898503;74;20167;-79
2021/07/19 06:01:04;;;;;;;;;;;30.30;90.40;;;;;;1904857;75;20211;-77
2021/07/19 06:03:35;;;;;;;;;;;30.40;90.40;;;;;;1897567;75;20164;-77
2021/07/19 06:06:07;;;;;;;;;;;30.40;90.20;;;;;;1890579;74;20237;-78
2021/07/19 06:08:37;;;;;;;;;;;30.40;90.00;;;;;;1897687;75;20128;-78
2021/07/19 06:11:07;;;;;;;;;;;30.40;90.00;;;;;;1888065;75;20186;-77
2021/07/19 06:13:37;;;;;;;;;;;30.30;90.00;;;;;;1894892;75;20404;-77
2021/07/19 06:16:07;;;;;;;;;;;30.30;90.30;;;;;;1897719;75;20200;-78
2021/07/19 06:18:40;;;;;;;;;;;30.30;90.30;;;;;;1898838;75;20180;-78
2021/07/19 06:21:09;;;;;;;;;;;30.30;90.30;;;;;;1902558;75;20221;-78
2021/07/19 06:23:40;;;;;;;;;;;30.30;90.50;;;;;;1912257;75;20196;-78
2021/07/19 06:26:11;;;;;;;;;;;30.40;90.20;;;;;;1891702;75;20468;-78
2021/07/19 06:28:45;;;;;;;;;;;30.50;89.80;;;;;;1892780;75;20174;-78
2021/07/19 06:31:15;;;;;;;;;;;30.50;89.30;;;;;;1900363;74;20166;-78
2021/07/19 06:33:45;;;;;;;;;;;30.50;89.70;;;;;;1895664;75;20211;-77
2021/07/19 06:36:17;;;;;;;;;;;30.50;89.80;;;;;;1898601;73;20464;-75
2021/07/19 06:38:47;;;;;;;;;;;30.60;89.50;;;;;;1902974;75;20189;-75
2021/07/19 06:41:17;;;;;;;;;;;30.60;89.50;;;;;;1900128;74;20188;-76
2021/07/19 06:43:46;;;;;;;;;;;30.70;88.60;;;;;;1920509;74;20210;-76
2021/07/19 06:46:16;;;;;;;;;;;30.70;88.70;;;;;;1913593;74;20494;-76
2021/07/19 06:48:46;;;;;;;;;;;30.70;88.70;;;;;;1903099;74;20246;-76
2021/07/19 06:51:16;;;;;;;;;;;30.60;88.90;;;;;;1912430;74;20155;-75
2021/07/19 06:53:46;;;;;;;;;;;30.60;88.90;;;;;;1914034;74;20163;-75
2021/07/19 06:56:15;;;;;;;;;;;30.60;89.00;;;;;;1900741;74;20217;-75
2021/07/19 06:58:45;;;;;;;;;;;30.60;88.80;;;;;;1913637;74;20205;-77
2021/07/19 07:01:15;;;;;;;;;;;30.60;88.70;;;;;;1899183;74;20486;-77
2021/07/19 07:03:45;;;;;;;;;;;30.60;89.10;;;;;;1902579;74;20233;-77
2021/07/19 07:06:16;;;;;;;;;;;30.60;89.40;;;;;;1922817;74;20191;-77
2021/07/19 07:08:46;;;;;;;;;;;30.60;89.40;;;;;;1914775;74;20158;-77
2021/07/19 07:11:16;;;;;;;;;;;30.60;89.50;;;;;;1906161;74;20178;-77
2021/07/19 07:13:46;;;;;;;;;;;30.60;89.50;;;;;;1899187;74;20138;-77
2021/07/19 07:16:15;;;;;;;;;;;30.70;89.40;;;;;;1908675;74;20209;-77
2021/07/19 07:18:45;;;;;;;;;;;30.80;89.30;;;;;;1898561;74;20488;-77
2021/07/19 07:21:15;;;;;;;;;;;30.90;88.50;;;;;;1909591;74;20205;-78
2021/07/19 07:23:45;;;;;;;;;;;30.90;87.80;;;;;;1900660;74;20194;-76
2021/07/19 07:26:15;;;;;;;;;;;30.80;87.50;;;;;;1905857;74;20192;-75
2021/07/19 07:28:45;;;;;;;;;;;30.70;87.20;;;;;;1904173;74;20333;-76
2021/07/19 07:31:15;;;;;;;;;;;30.70;87.60;;;;;;1899693;74;20208;-76
2021/07/19 07:33:45;;;;;;;;;;;30.80;88.20;;;;;;1904839;74;20400;-76
2021/07/19 07:36:15;;;;;;;;;;;30.90;88.50;;;;;;1907219;74;20180;-76
2021/07/19 07:38:44;;;;;;;;;;;31.10;86.90;;;;;;1907351;74;20245;-76
2021/07/19 07:41:15;;;;;;;;;;;31.30;87.00;;;;;;1901587;74;20223;-76
2021/07/19 07:43:44;;;;;;;;;;;31.40;85.00;;;;;;1886721;74;20368;-77
2021/07/19 07:46:15;;;;;;;;;;;31.40;84.60;;;;;;1886252;75;20220;-77
2021/07/19 07:48:45;;;;;;;;;;;31.40;85.20;;;;;;1889129;75;20117;-76
2021/07/19 07:51:14;;;;;;;;;;;31.50;85.20;;;;;;1885540;74;20493;-76
2021/07/19 07:53:44;;;;;;;;;;;31.50;83.20;;;;;;1845897;77;20243;-75
2021/07/19 07:56:14;;;;;;;;;;;31.50;83.60;;;;;;1843365;77;20238;-76
2021/07/19 07:58:44;;;;;;;;;;;31.50;83.50;;;;;;1831048;77;20242;-77
2021/07/19 08:01:14;;;;;;;;;;;31.30;84.10;;;;;;1839554;77;20246;-76
2021/07/19 08:03:44;;;;;;;;;;;31.30;85.10;;;;;;1832232;77;20210;-76
2021/07/19 08:06:14;;;;;;;;;;;31.40;85.40;;;;;;1849920;77;20200;-77
2021/07/19 08:08:44;;;;;;;;;;;31.50;84.80;;;;;;1844012;77;20163;-76
2021/07/19 08:11:15;;;;;;;;;;;31.50;85.40;;;;;;1839807;77;20183;-78
2021/07/19 08:13:44;;;;;;;;;;;31.50;85.50;;;;;;1851900;76;20218;-76
2021/07/19 08:16:14;;;;;;;;;;;31.60;85.30;;;;;;1820404;76;20232;-76
2021/07/19 08:18:44;;;;;;;;;;;31.60;85.30;;;;;;1834176;78;20215;-77
2021/07/19 08:21:13;;;;;;;;;;;31.50;85.20;;;;;;1829689;77;20161;-77
2021/07/19 08:23:43;;;;;;;;;;;31.50;85.30;;;;;;1836452;77;20215;-76
2021/07/19 08:26:14;;;;;;;;;;;31.40;85.10;;;;;;1831195;77;20211;-75
2021/07/19 08:28:44;;;;;;;;;;;31.40;84.30;;;;;;1836952;77;20231;-78
2021/07/19 08:31:14;;;;;;;;;;;31.40;84.20;;;;;;1850047;77;20165;-78
2021/07/19 08:33:43;;;;;;;;;;;31.30;84.20;;;;;;1833481;77;20186;-78
2021/07/19 08:36:13;;;;;;;;;;;31.30;85.10;;;;;;1831362;77;20214;-79
2021/07/19 08:38:43;;;;;;;;;;;31.30;84.50;;;;;;1845335;77;20165;-79
2021/07/19 08:41:12;;;;;;;;;;;31.30;84.40;;;;;;1840652;77;20400;-79
2021/07/19 08:43:43;;;;;;;;;;;31.30;84.60;;;;;;1829551;78;20132;-77
2021/07/19 08:46:13;;;;;;;;;;;31.40;83.90;;;;;;1841390;77;20544;-78
2021/07/19 08:48:45;;;;;;;;;;;31.30;83.50;;;;;;1846694;77;20187;-77
2021/07/19 08:51:14;;;;;;;;;;;31.20;84.20;;;;;;1836786;77;20477;-77
2021/07/19 08:53:44;;;;;;;;;;;31.10;83.20;;;;;;1836617;77;20134;-78
2021/07/19 08:56:14;;;;;;;;;;;31.00;83.50;;;;;;1830924;77;20191;-76
2021/07/19 08:58:44;;;;;;;;;;;31.00;83.60;;;;;;1890850;74;20238;-77
2021/07/19 09:01:14;;;;;;;;;;;30.80;83.60;;;;;;1894139;73;20203;-76
2021/07/19 09:03:45;;;;;;;;;;;30.80;83.70;;;;;;1890746;73;20290;-78
2021/07/19 09:06:15;;;;;;;;;;;30.80;83.90;;;;;;1896385;75;20227;-78
2021/07/19 09:08:46;;;;;;;;;;;30.70;83.70;;;;;;1904378;75;20277;-77
2021/07/19 09:11:16;;;;;;;;;;;30.70;84.30;;;;;;1893603;75;20205;-78
2021/07/19 09:13:47;;;;;;;;;;;30.70;83.90;;;;;;1895866;75;20231;-78
2021/07/19 09:16:42;;;;;;;;;;;30.70;84.70;;;;;;1836404;77;20223;-78
2021/07/19 09:20:13;;;;;;;;;;;30.70;85.10;;;;;;1708908;82;20204;-77
2021/07/19 09:22:24;;;;;;;;;;;30.70;84.50;;;;;;1772898;79;20238;-78
2021/07/19 09:25:16;;;;;;;;;;;30.70;85.00;;;;;;1709534;83;20206;-77
2021/07/19 09:27:45;;;;;;;;;;;30.60;85.20;;;;;;1702239;83;20533;-77
2021/07/19 09:30:27;;;;;;;;;;;30.50;85.90;;;;;;1705609;84;20233;-79
2021/07/19 09:33:58;;;;;;;;;;;30.50;86.60;;;;;;1631619;87;20275;-78
2021/07/19 09:36:05;;;;;;;;;;;30.50;86.80;;;;;;1607336;87;20435;-78
2021/07/19 09:38:26;;;;;;;;;;;30.40;87.40;;;;;;1624113;87;20166;-78
2021/07/19 09:40:57;;;;;;;;;;;30.40;87.20;;;;;;1685754;83;20255;-77
2021/07/19 09:43:28;;;;;;;;;;;30.40;87.20;;;;;;1699322;83;20302;-79
2021/07/19 09:45:59;;;;;;;;;;;30.30;87.70;;;;;;1694052;83;20636;-77
2021/07/19 09:48:29;;;;;;;;;;;30.30;88.10;;;;;;1690285;83;20302;-78
2021/07/19 09:51:02;;;;;;;;;;;30.30;87.70;;;;;;1686869;84;20250;-78
2021/07/19 09:53:45;;;;;;;;;;;30.30;87.70;;;;;;1692477;84;20298;-77
2021/07/19 09:56:30;;;;;;;;;;;30.30;88.60;;;;;;1687008;81;20206;-78
2021/07/19 10:07:45;;;;;;;;;;;30.20;90.20;;;;;;1798417;79;20295;-77
2021/07/19 10:10:16;;;;;;;;;;;30.00;90.10;;;;;;1804315;79;20289;-78
2021/07/19 10:12:46;;;;;;;;;;;29.90;89.90;;;;;;1807703;79;20722;-78
2021/07/19 10:15:16;;;;;;;;;;;29.80;89.30;;;;;;1805380;78;20167;-78
2021/07/19 10:17:47;;;;;;;;;;;29.70;89.50;;;;;;1802840;78;20536;-77
2021/07/19 10:20:21;;;;;;;;;;;29.60;89.10;;;;;;1793938;79;20139;-78
2021/07/19 10:23:03;;;;;;;;;;;29.50;89.60;;;;;;1794035;79;20577;-78
2021/07/19 10:25:37;;;;;;;;;;;29.30;90.20;;;;;;1799224;79;20551;-80
2021/07/19 10:28:06;;;;;;;;;;;29.20;90.40;;;;;;1799585;79;20184;-79
2021/07/19 10:30:36;;;;;;;;;;;29.20;90.80;;;;;;1802521;79;20260;-78
2021/07/19 10:33:48;;;;;;;;;;;29.20;90.80;;;;;;1799144;79;20549;-79
2021/07/19 10:35:49;;;;;;;;;;;29.10;90.60;;;;;;1780434;79;20236;-79
2021/07/19 10:38:18;;;;;;;;;;;29.10;90.80;;;;;;1782842;79;20198;-78
2021/07/19 10:40:49;;;;;;;;;;;29.00;91.00;;;;;;1808105;77;20179;-79
2021/07/19 10:43:18;;;;;;;;;;;28.90;91.10;;;;;;1863481;75;20248;-77
2021/07/19 10:45:51;;;;;;;;;;;28.80;91.40;;;;;;1881527;75;20195;-78
2021/07/19 10:48:22;;;;;;;;;;;28.80;91.60;;;;;;1880719;75;20131;-77
2021/07/19 10:51:09;;;;;;;;;;;;;;;;;;;;;
2021/07/19 10:53:34;;;;;;;;;;;28.70;92.00;;;;;;1824390;76;20529;-76
2021/07/19 10:56:05;;;;;;;;;;;28.60;92.20;;;;;;1819711;78;20241;-79
2021/07/19 10:58:38;;;;;;;;;;;28.50;92.50;;;;;;1826428;77;20172;-78
2021/07/19 11:01:10;;;;;;;;;;;28.50;92.30;;;;;;1825137;78;20377;-77
2021/07/19 11:03:42;;;;;;;;;;;28.40;92.30;;;;;;1818829;77;20506;-78
2021/07/19 11:06:15;;;;;;;;;;;28.40;92.50;;;;;;1821425;78;20266;-77
2021/07/19 11:08:49;;;;;;;;;;;28.40;92.60;;;;;;1828533;78;20201;-77
2021/07/19 11:11:19;;;;;;;;;;;28.30;93.00;;;;;;1823775;77;20280;-77
2021/07/19 11:13:51;;;;;;;;;;;28.30;92.70;;;;;;1825026;77;20221;-78
2021/07/19 11:16:21;;;;;;;;;;;28.30;92.70;;;;;;1820815;78;20309;-78
2021/07/19 11:18:52;;;;;;;;;;;28.20;92.60;;;;;;1822798;77;20541;-78
2021/07/19 11:21:23;;;;;;;;;;;28.20;92.70;;;;;;1822952;78;20281;-77
2021/07/19 11:23:54;;;;;;;;;;;28.20;92.70;;;;;;1822441;78;20606;-78
2021/07/19 11:26:24;;;;;;;;;;;28.20;92.60;;;;;;1824770;77;20586;-77
2021/07/19 11:28:57;;;;;;;;;;;28.20;92.60;;;;;;1826603;77;20289;-78
2021/07/19 11:31:26;;;;;;;;;;;28.30;92.60;;;;;;1855513;75;20426;-77
2021/07/19 11:33:57;;;;;;;;;;;28.20;92.60;;;;;;1882659;75;20608;-77
2021/07/19 11:36:28;;;;;;;;;;;28.30;92.50;;;;;;1885230;75;20237;-76
2021/07/19 11:38:59;;;;;;;;;;;28.30;92.40;;;;;;1886937;75;20248;-78
2021/07/19 11:41:30;;;;;;;;;;;28.30;92.50;;;;;;1888380;75;20202;-77
2021/07/19 11:44:01;;;;;;;;;;;28.20;92.60;;;;;;1886539;75;20235;-77
2021/07/19 11:46:32;;;;;;;;;;;28.20;92.60;;;;;;1885679;75;20512;-78
2021/07/19 11:49:04;;;;;;;;;;;28.10;92.80;;;;;;1889110;75;20202;-77
2021/07/19 11:51:34;;;;;;;;;;;28.10;92.70;;;;;;1887438;75;20524;-77
2021/07/19 11:54:04;;;;;;;;;;;28.00;92.80;;;;;;1881386;74;20273;-78
2021/07/19 11:56:34;;;;;;;;;;;28.00;93.00;;;;;;1883731;74;20214;-77
2021/07/19 11:59:04;;;;;;;;;;;28.00;93.10;;;;;;1888182;75;20217;-77
2021/07/19 12:01:35;;;;;;;;;;;28.00;93.10;;;;;;1885261;75;20590;-76
2021/07/19 12:04:05;;;;;;;;;;;27.90;93.10;;;;;;1886088;74;20227;-77
2021/07/19 12:06:35;;;;;;;;;;;27.90;93.00;;;;;;1888198;75;20204;-78
2021/07/19 12:09:06;;;;;;;;;;;27.90;92.90;;;;;;1880448;75;20789;-78
2021/07/19 12:11:36;;;;;;;;;;;27.90;93.00;;;;;;1894005;75;20160;-79
2021/07/19 12:14:10;;;;;;;;;;;27.90;92.90;;;;;;1880847;75;20229;-80
2021/07/19 12:16:39;;;;;;;;;;;27.90;92.90;;;;;;1887128;74;20198;-78
2021/07/19 12:19:09;;;;;;;;;;;27.80;92.90;;;;;;1884324;75;20176;-77
2021/07/19 12:21:41;;;;;;;;;;;27.80;93.00;;;;;;1889751;75;20449;-77
2021/07/19 12:24:12;;;;;;;;;;;27.80;93.00;;;;;;1888107;75;20180;-78
2021/07/19 12:26:42;;;;;;;;;;;27.80;93.00;;;;;;1874731;75;20181;-76
2021/07/19 12:29:13;;;;;;;;;;;27.90;92.90;;;;;;1881546;75;20127;-76
2021/07/19 12:31:47;;;;;;;;;;;27.90;92.90;;;;;;1883154;75;20460;-87
2021/07/19 12:34:18;;;;;;;;;;;27.90;92.90;;;;;;1889014;75;20213;-88
2021/07/19 12:36:49;;;;;;;;;;;27.90;92.90;;;;;;1891534;75;20288;-86
2021/07/19 12:39:24;;;;;;;;;;;27.90;92.90;;;;;;1888423;75;20273;-86
2021/07/19 12:41:54;;;;;;;;;;;27.90;93.00;;;;;;1884209;75;21107;-88
2021/07/19 12:44:25;;;;;;;;;;;27.90;93.00;;;;;;1844131;76;20436;-87
2021/07/19 12:46:58;;;;;;;;;;;27.90;93.00;;;;;;1838315;76;20242;-87
2021/07/19 12:49:30;;;;;;;;;;;27.80;93.10;;;;;;1835521;77;20179;-87
2021/07/19 12:52:02;;;;;;;;;;;27.90;93.10;;;;;;1834055;77;20478;-89
2021/07/19 12:54:39;;;;;;;;;;;27.90;93.20;;;;;;1832683;77;20550;-89
2021/07/19 12:57:10;;;;;;;;;;;27.90;93.30;;;;;;1838991;76;20239;-89
2021/07/19 12:59:42;;;;;;;;;;;27.80;93.30;;;;;;1828657;77;20481;-89
2021/07/19 13:02:16;;;;;;;;;;;27.80;93.40;;;;;;1836158;77;20187;-88
2021/07/19 13:04:50;;;;;;;;;;;27.80;93.50;;;;;;1827984;76;20249;-88
2021/07/19 13:07:26;;;;;;;;;;;27.80;93.90;;;;;;1837423;77;20238;-87
2021/07/19 13:09:57;;;;;;;;;;;27.80;93.50;;;;;;1852884;76;20466;-87
2021/07/19 13:12:28;;;;;;;;;;;27.80;93.60;;;;;;1837055;77;20215;-83
2021/07/19 13:15:02;;;;;;;;;;;27.80;93.70;;;;;;1832060;76;20218;-85
2021/07/19 13:17:33;;;;;;;;;;;27.80;93.70;;;;;;1835474;76;20205;-85
2021/07/19 13:20:09;;;;;;;;;;;27.80;93.80;;;;;;1828869;76;20154;-86
2021/07/19 13:22:39;;;;;;;;;;;27.80;93.80;;;;;;1839798;77;20212;-84
2021/07/19 13:25:17;;;;;;;;;;;27.80;93.80;;;;;;1824541;78;20215;-83
2021/07/19 13:28:09;;;;;;;;;;;27.80;94.00;;;;;;1827604;76;20215;-86
2021/07/19 13:30:51;;;;;;;;;;;27.80;94.00;;;;;;1809118;77;20268;-85
2021/07/19 13:33:25;;;;;;;;;;;27.80;94.50;;;;;;1828825;76;20824;-86
2021/07/19 13:36:18;;;;;;;;;;;27.80;94.10;;;;;;1833201;77;20201;-84
2021/07/19 13:38:49;;;;;;;;;;;27.80;94.30;;;;;;1834325;77;20500;-85
2021/07/19 13:41:22;;;;;;;;;;;27.80;94.30;;;;;;1834618;77;20171;-86
2021/07/19 13:43:54;;;;;;;;;;;27.80;94.40;;;;;;1814097;77;20262;-85
2021/07/19 13:46:25;;;;;;;;;;;27.80;94.50;;;;;;1833610;77;20279;-85
2021/07/19 13:48:59;;;;;;;;;;;27.80;94.60;;;;;;1835536;77;20658;-85
2021/07/19 13:51:33;;;;;;;;;;;27.70;94.60;;;;;;1835707;76;20254;-85
2021/07/19 13:54:02;;;;;;;;;;;27.70;94.80;;;;;;1834971;77;20250;-85
2021/07/19 13:56:32;;;;;;;;;;;27.70;94.80;;;;;;1832762;77;20226;-85
2021/07/19 13:59:06;;;;;;;;;;;27.70;94.80;;;;;;1835763;77;20165;-84
2021/07/19 14:01:37;;;;;;;;;;;27.70;95.00;;;;;;1835012;77;20230;-85
2021/07/19 14:04:11;;;;;;;;;;;27.70;95.10;;;;;;1856048;76;20583;-85
2021/07/19 14:06:41;;;;;;;;;;;27.70;95.10;;;;;;1838621;77;20185;-84
2021/07/19 14:09:11;;;;;;;;;;;27.70;95.20;;;;;;1833813;77;20219;-84
2021/07/19 14:11:43;;;;;;;;;;;27.70;95.30;;;;;;1835490;77;20265;-92
2021/07/19 14:14:19;;;;;;;;;;;27.70;95.50;;;;;;1835116;77;20175;-90
2021/07/19 14:16:51;;;;;;;;;;;27.60;95.50;;;;;;1834220;76;20155;-90
2021/07/19 14:19:23;;;;;;;;;;;27.60;95.60;;;;;;1853029;77;20191;-91
2021/07/19 14:22:00;;;;;;;;;;;27.60;95.70;;;;;;1836322;76;20210;-90
2021/07/19 14:24:35;;;;;;;;;;;27.60;95.80;;;;;;1838550;77;20159;-91
2021/07/19 14:27:07;;;;;;;;;;;27.60;96.00;;;;;;1838221;77;20149;-90
2021/07/19 14:29:37;;;;;;;;;;;27.60;96.00;;;;;;1821030;77;20210;-89
2021/07/19 14:32:08;;;;;;;;;;;27.50;96.00;;;;;;1838866;77;20285;-90
2021/07/19 14:34:40;;;;;;;;;;;27.50;96.10;;;;;;1838539;76;20152;-90
2021/07/19 14:37:20;;;;;;;;;;;27.50;96.10;;;;;;1837871;77;20195;-89
2021/07/19 14:39:58;;;;;;;;;;;27.50;96.10;;;;;;1841167;77;20118;-89
2021/07/19 14:42:29;;;;;;;;;;;27.50;96.10;;;;;;1840278;77;20975;-90
2021/07/19 14:44:59;;;;;;;;;;;27.50;96.10;;;;;;1835113;77;20199;-91
2021/07/19 14:47:46;;;;;;;;;;;27.50;96.20;;;;;;1817752;78;20237;-91
2021/07/19 14:50:25;;;;;;;;;;;27.50;96.10;;;;;;1815480;78;20235;-90
2021/07/19 14:52:59;;;;;;;;;;;27.50;95.90;;;;;;1825502;76;20242;-90
2021/07/19 14:55:31;;;;;;;;;;;27.50;95.80;;;;;;1821739;78;20268;-91
2021/07/19 14:58:02;;;;;;;;;;;27.40;95.80;;;;;;1825257;78;20195;-89